createdAt,value
2017-10-16T00:00:13.918Z,99.90
2017-10-16T00:02:41.439Z,99.90
2017-10-16T00:05:09.736Z,99.90
2017-10-16T00:07:37.254Z,99.90
2017-10-16T00:10:04.802Z,99.90
2017-10-16T00:12:32.327Z,99.90
2017-10-16T00:14:59.851Z,99.90
2017-10-16T00:17:28.141Z,99.90
2017-10-16T00:19:56.409Z,99.90
2017-10-16T00:22:24.696Z,99.90
2017-10-16T00:24:52.276Z,99.90
2017-10-16T00:27:19.826Z,99.90
2017-10-16T00:29:47.340Z,99.90
2017-10-16T00:32:16.377Z,99.90
2017-10-16T00:34:43.898Z,99.90
2017-10-16T00:37:11.422Z,99.90
2017-10-16T00:39:38.963Z,99.90
2017-10-16T00:42:06.474Z,99.90
2017-10-16T00:44:34.018Z,99.90
2017-10-16T00:47:02.303Z,99.90
2017-10-16T00:49:29.829Z,99.90
2017-10-16T00:51:57.346Z,99.90
2017-10-16T00:54:25.658Z,99.90
2017-10-16T00:56:53.178Z,99.90
2017-10-16T00:59:21.444Z,99.90
2017-10-16T01:01:49.746Z,99.90
2017-10-16T01:04:17.269Z,99.90
2017-10-16T01:06:46.298Z,99.90
2017-10-16T01:09:13.804Z,99.90
2017-10-16T01:11:41.329Z,99.90
2017-10-16T01:14:08.828Z,99.90
2017-10-16T01:16:37.160Z,99.90
2017-10-16T01:19:04.660Z,99.90
2017-10-16T01:21:32.179Z,99.90
2017-10-16T01:23:59.718Z,99.90
2017-10-16T01:26:27.247Z,99.90
2017-10-16T01:28:54.772Z,99.90
2017-10-16T01:31:22.281Z,99.90
2017-10-16T01:33:50.572Z,99.90
2017-10-16T01:36:18.099Z,99.90
2017-10-16T01:38:46.375Z,99.90
2017-10-16T01:41:14.674Z,99.90
2017-10-16T01:43:42.958Z,99.90
2017-10-16T01:46:10.489Z,99.90
2017-10-16T01:48:38.817Z,99.90
2017-10-16T01:51:06.339Z,99.90
2017-10-16T01:53:34.616Z,99.90
2017-10-16T01:56:02.888Z,99.90
2017-10-16T01:58:31.202Z,99.90
2017-10-16T02:00:58.723Z,99.90
2017-10-16T02:03:27.012Z,99.90
2017-10-16T02:05:54.526Z,99.90
2017-10-16T02:08:22.061Z,99.90
2017-10-16T02:10:49.579Z,99.90
2017-10-16T02:13:17.884Z,99.90
2017-10-16T02:15:45.403Z,99.90
2017-10-16T02:18:13.686Z,99.90
2017-10-16T02:20:41.233Z,99.90
2017-10-16T02:23:08.750Z,99.90
2017-10-16T02:25:36.292Z,99.90
2017-10-16T02:28:03.825Z,99.90
2017-10-16T02:30:32.121Z,99.90
2017-10-16T02:32:59.694Z,99.90
2017-10-16T02:35:27.209Z,99.90
2017-10-16T02:37:55.520Z,99.90
2017-10-16T02:40:23.033Z,99.90
2017-10-16T02:42:50.557Z,99.90
2017-10-16T02:45:18.090Z,99.90
2017-10-16T02:47:45.774Z,99.90
2017-10-16T02:50:13.277Z,99.90
2017-10-16T02:52:41.556Z,99.90
2017-10-16T02:55:09.844Z,99.90
2017-10-16T02:57:38.115Z,99.90
2017-10-16T03:00:06.426Z,99.90
2017-10-16T03:02:33.947Z,99.90
2017-10-16T03:05:02.238Z,99.90
2017-10-16T03:07:29.758Z,99.90
2017-10-16T03:09:57.303Z,99.90
2017-10-16T03:12:24.824Z,99.90
2017-10-16T03:14:52.345Z,99.90
2017-10-16T03:17:21.397Z,99.90
2017-10-16T03:19:48.900Z,99.90
2017-10-16T03:22:16.438Z,99.90
2017-10-16T03:24:43.966Z,99.90
2017-10-16T03:27:11.500Z,99.90
2017-10-16T03:29:39.081Z,99.90
2017-10-16T03:32:06.593Z,99.90
2017-10-16T03:34:34.903Z,99.90
2017-10-16T03:37:02.412Z,99.90
2017-10-16T03:39:29.950Z,99.90
2017-10-16T03:41:57.452Z,99.90
2017-10-16T03:44:25.740Z,99.90
2017-10-16T03:46:54.022Z,99.90
2017-10-16T03:49:21.557Z,99.90
2017-10-16T03:51:49.846Z,99.90
2017-10-16T03:54:18.121Z,99.90
2017-10-16T03:56:46.430Z,99.90
2017-10-16T03:59:13.960Z,99.90
2017-10-16T04:01:42.253Z,99.90
2017-10-16T04:04:09.779Z,99.90
2017-10-16T04:06:37.315Z,99.90
2017-10-16T04:09:04.839Z,99.90
2017-10-16T04:11:32.358Z,99.90
2017-10-16T04:14:00.773Z,99.90
2017-10-16T04:16:28.342Z,99.90
2017-10-16T04:18:55.883Z,99.90
2017-10-16T04:21:23.413Z,99.90
2017-10-16T04:23:51.700Z,99.90
2017-10-16T04:26:19.991Z,99.90
2017-10-16T04:28:47.512Z,99.90
2017-10-16T04:31:15.034Z,99.90
2017-10-16T04:33:42.557Z,99.90
2017-10-16T04:36:10.828Z,99.90
2017-10-16T04:38:39.134Z,99.90
2017-10-16T04:41:06.653Z,99.90
2017-10-16T04:43:34.940Z,99.90
2017-10-16T04:46:03.217Z,99.90
2017-10-16T04:48:31.532Z,99.90
2017-10-16T04:50:59.051Z,99.90
2017-10-16T04:53:26.564Z,99.90
2017-10-16T04:55:54.102Z,99.90
2017-10-16T04:58:21.791Z,99.90
2017-10-16T05:00:49.418Z,99.90
2017-10-16T05:03:16.987Z,99.90
2017-10-16T05:05:44.534Z,99.90
2017-10-16T05:08:12.036Z,99.90
2017-10-16T05:10:40.338Z,99.90
2017-10-16T05:13:08.623Z,99.90
2017-10-16T05:15:36.930Z,99.90
2017-10-16T05:18:04.436Z,99.90
2017-10-16T05:20:31.967Z,99.90
2017-10-16T05:22:59.472Z,99.90
2017-10-16T05:25:27.780Z,99.90
2017-10-16T05:27:55.337Z,99.90
2017-10-16T05:30:22.841Z,99.90
2017-10-16T05:32:50.359Z,99.90
2017-10-16T05:35:17.882Z,99.90
2017-10-16T05:37:46.183Z,99.90
2017-10-16T05:40:13.683Z,99.90
2017-10-16T05:42:41.994Z,99.90
2017-10-16T05:45:09.519Z,99.90
2017-10-16T05:47:37.792Z,99.90
2017-10-16T05:50:06.081Z,99.90
2017-10-16T05:52:35.124Z,99.90
2017-10-16T05:55:02.654Z,99.90
2017-10-16T05:57:30.943Z,99.90
2017-10-16T05:59:58.467Z,99.90
2017-10-16T06:02:25.986Z,99.90
2017-10-16T06:04:53.529Z,99.90
2017-10-16T06:07:21.033Z,99.90
2017-10-16T06:09:49.320Z,99.90
2017-10-16T06:12:16.823Z,99.90
2017-10-16T06:14:44.336Z,99.90
2017-10-16T06:17:12.645Z,99.90
2017-10-16T06:19:40.222Z,99.90
2017-10-16T06:22:07.768Z,99.90
2017-10-16T06:24:35.288Z,99.90
2017-10-16T06:27:03.107Z,99.90
2017-10-16T06:29:30.616Z,99.90
2017-10-16T06:31:58.154Z,99.90
2017-10-16T06:34:25.661Z,99.90
2017-10-16T06:36:53.210Z,99.90
2017-10-16T06:39:21.495Z,99.90
2017-10-16T06:41:49.763Z,99.90
2017-10-16T06:44:18.067Z,99.90
2017-10-16T06:46:45.591Z,99.90
2017-10-16T06:49:13.889Z,99.90
2017-10-16T06:51:41.406Z,99.90
2017-10-16T06:54:08.936Z,99.90
2017-10-16T06:56:36.452Z,99.90
2017-10-16T06:59:04.054Z,99.90
2017-10-16T07:01:31.575Z,99.90
2017-10-16T07:03:59.095Z,99.90
2017-10-16T07:06:26.616Z,99.90
2017-10-16T07:08:54.138Z,99.90
2017-10-16T07:11:22.443Z,99.90
2017-10-16T07:13:49.953Z,99.90
2017-10-16T07:16:17.499Z,99.90
2017-10-16T07:18:46.526Z,99.90
2017-10-16T07:21:14.820Z,99.90
2017-10-16T07:23:42.328Z,99.90
2017-10-16T07:26:10.604Z,99.90
2017-10-16T07:28:38.145Z,99.90
2017-10-16T07:31:05.675Z,99.90
2017-10-16T07:33:33.205Z,99.90
2017-10-16T07:36:01.495Z,99.90
2017-10-16T07:38:29.034Z,99.90
2017-10-16T07:40:57.308Z,97.30
2017-10-16T07:43:25.612Z,96.10
2017-10-16T07:45:53.127Z,96.10
2017-10-16T07:48:20.805Z,93.70
2017-10-16T07:50:49.320Z,87.90
2017-10-16T07:53:16.829Z,87.90
2017-10-16T07:55:44.360Z,82.80
2017-10-16T07:58:11.903Z,84.10
2017-10-16T08:00:39.438Z,83.40
2017-10-16T08:03:07.703Z,71.40
2017-10-16T08:05:35.994Z,67.50
2017-10-16T08:08:03.535Z,67.30
2017-10-16T08:10:31.802Z,65.90
2017-10-16T08:12:59.339Z,65.90
2017-10-16T08:15:26.844Z,61.00
2017-10-16T08:17:54.364Z,58.30
2017-10-16T08:20:21.883Z,56.50
2017-10-16T08:22:49.384Z,56.30
2017-10-16T08:25:16.917Z,53.90
2017-10-16T08:27:44.425Z,55.10
2017-10-16T08:30:12.006Z,54.00
2017-10-16T08:32:39.530Z,53.00
2017-10-16T08:35:07.063Z,50.70
2017-10-16T08:37:34.586Z,49.10
2017-10-16T08:40:02.102Z,46.90
2017-10-16T08:42:29.625Z,45.90
2017-10-16T08:44:57.124Z,45.50
2017-10-16T08:47:25.435Z,43.20
2017-10-16T08:49:52.973Z,43.10
2017-10-16T08:52:21.273Z,43.90
2017-10-16T08:54:48.801Z,43.90
2017-10-16T08:57:17.068Z,42.90
2017-10-16T08:59:44.592Z,42.90
2017-10-16T09:02:12.127Z,42.90
2017-10-16T09:04:39.688Z,43.80
2017-10-16T09:07:07.210Z,42.40
2017-10-16T09:09:35.514Z,40.80
2017-10-16T09:12:03.388Z,40.70
2017-10-16T09:14:30.911Z,40.30
2017-10-16T09:16:59.210Z,39.90
2017-10-16T09:19:26.713Z,39.90
2017-10-16T09:21:54.232Z,38.30
2017-10-16T09:24:21.741Z,37.90
2017-10-16T09:26:49.294Z,38.00
2017-10-16T09:29:16.797Z,38.40
2017-10-16T09:31:44.317Z,36.00
2017-10-16T09:34:11.854Z,36.80
2017-10-16T09:36:39.365Z,36.00
2017-10-16T09:39:06.900Z,35.50
2017-10-16T09:41:34.422Z,35.70
2017-10-16T09:44:01.936Z,37.70
2017-10-16T09:46:30.196Z,36.50
2017-10-16T09:48:57.774Z,36.50
2017-10-16T09:51:26.040Z,34.30
2017-10-16T09:53:54.304Z,34.30
2017-10-16T09:56:21.844Z,34.20
2017-10-16T09:58:49.356Z,32.20
2017-10-16T10:01:16.927Z,31.40
2017-10-16T10:03:44.433Z,30.80
2017-10-16T10:06:12.148Z,31.50
2017-10-16T10:08:39.683Z,32.30
2017-10-16T10:11:07.203Z,32.40
2017-10-16T10:13:34.724Z,32.60
2017-10-16T10:16:02.230Z,32.80
2017-10-16T10:18:29.760Z,31.30
2017-10-16T10:20:58.024Z,29.80
2017-10-16T10:23:25.563Z,29.70
2017-10-16T10:25:53.084Z,29.60
2017-10-16T10:28:20.627Z,29.30
2017-10-16T10:30:48.140Z,29.90
2017-10-16T10:33:15.687Z,29.60
2017-10-16T10:35:43.220Z,28.90
2017-10-16T10:38:10.728Z,28.80
2017-10-16T10:40:38.248Z,28.50
2017-10-16T10:43:05.771Z,26.80
2017-10-16T10:45:33.296Z,26.50
2017-10-16T10:48:00.796Z,25.60
2017-10-16T10:50:28.384Z,25.70
2017-10-16T10:52:55.903Z,25.70
2017-10-16T10:55:23.438Z,25.50
2017-10-16T10:57:50.952Z,25.80
2017-10-16T11:00:18.476Z,25.10
2017-10-16T11:02:46.758Z,25.40
2017-10-16T11:05:14.538Z,25.30
2017-10-16T11:07:42.190Z,24.60
2017-10-16T11:10:09.690Z,24.70
2017-10-16T11:12:37.208Z,23.80
2017-10-16T11:15:04.727Z,24.80
2017-10-16T11:17:32.270Z,24.70
2017-10-16T11:19:59.781Z,24.10
2017-10-16T11:22:27.311Z,24.60
2017-10-16T11:24:55.579Z,23.00
2017-10-16T11:27:23.130Z,22.90
2017-10-16T11:29:50.763Z,23.20
2017-10-16T11:32:18.291Z,22.90
2017-10-16T11:34:45.835Z,23.70
2017-10-16T11:37:14.120Z,23.70
2017-10-16T11:39:41.659Z,23.70
2017-10-16T11:42:09.977Z,23.90
2017-10-16T11:44:37.505Z,23.80
2017-10-16T11:47:05.776Z,24.90
2017-10-16T11:49:34.193Z,24.80
2017-10-16T11:52:01.700Z,24.80
2017-10-16T11:54:29.208Z,23.90
2017-10-16T11:56:56.732Z,24.40
2017-10-16T11:59:25.000Z,24.70
2017-10-16T12:01:52.516Z,24.60
2017-10-16T12:04:20.020Z,26.60
2017-10-16T12:06:48.325Z,29.50
2017-10-16T12:09:15.841Z,29.40
2017-10-16T12:11:43.377Z,29.70
2017-10-16T12:14:10.871Z,29.90
2017-10-16T12:16:39.160Z,32.10
2017-10-16T12:19:06.747Z,32.10
2017-10-16T12:21:34.247Z,32.70
2017-10-16T12:24:01.771Z,34.70
2017-10-16T12:26:29.298Z,34.60
2017-10-16T12:28:56.821Z,35.20
2017-10-16T12:31:25.102Z,36.40
2017-10-16T12:33:52.646Z,36.40
2017-10-16T12:36:20.168Z,38.00
2017-10-16T12:38:47.719Z,37.90
2017-10-16T12:41:15.258Z,38.20
2017-10-16T12:43:43.524Z,36.70
2017-10-16T12:46:11.833Z,36.50
2017-10-16T12:48:39.366Z,36.50
2017-10-16T12:51:07.707Z,35.00
2017-10-16T12:53:35.214Z,34.90
2017-10-16T12:56:02.803Z,33.90
2017-10-16T12:58:30.308Z,33.30
2017-10-16T13:00:57.812Z,32.90
2017-10-16T13:03:25.452Z,33.20
2017-10-16T13:05:52.977Z,34.40
2017-10-16T13:08:21.264Z,31.60
2017-10-16T13:10:49.532Z,32.70
2017-10-16T13:13:17.066Z,32.00
2017-10-16T13:15:44.577Z,33.40
2017-10-16T13:18:12.112Z,34.60
2017-10-16T13:20:39.636Z,35.60
2017-10-16T13:23:07.136Z,36.00
2017-10-16T13:25:35.433Z,37.90
2017-10-16T13:28:02.964Z,37.80
2017-10-16T13:30:30.503Z,38.20
2017-10-16T13:32:58.022Z,38.00
2017-10-16T13:35:25.694Z,38.40
2017-10-16T13:37:53.215Z,38.70
2017-10-16T13:40:21.517Z,36.50
2017-10-16T13:42:49.088Z,36.40
2017-10-16T13:45:16.613Z,34.60
2017-10-16T13:47:44.916Z,32.30
2017-10-16T13:50:12.439Z,32.20
2017-10-16T13:52:40.728Z,32.60
2017-10-16T13:55:08.996Z,33.70
2017-10-16T13:57:37.295Z,33.50
2017-10-16T14:00:04.815Z,33.50
2017-10-16T14:02:32.332Z,34.30
2017-10-16T14:04:59.842Z,34.10
2017-10-16T14:07:28.146Z,35.10
2017-10-16T14:09:55.661Z,35.60
2017-10-16T14:12:23.215Z,36.30
2017-10-16T14:14:52.216Z,38.90
2017-10-16T14:17:19.832Z,38.90
2017-10-16T14:19:47.379Z,39.20
2017-10-16T14:22:14.906Z,39.40
2017-10-16T14:24:43.196Z,40.60
2017-10-16T14:27:11.468Z,40.40
2017-10-16T14:29:39.751Z,40.70
2017-10-16T14:32:07.279Z,40.60
2017-10-16T14:34:34.810Z,41.00
2017-10-16T14:37:02.347Z,41.80
2017-10-16T14:39:29.889Z,42.00
2017-10-16T14:41:57.465Z,41.50
2017-10-16T14:44:24.982Z,41.40
2017-10-16T14:46:53.276Z,41.60
2017-10-16T14:49:21.571Z,41.60
2017-10-16T14:51:49.122Z,41.60
2017-10-16T14:54:16.642Z,42.00
2017-10-16T14:56:44.254Z,41.80
2017-10-16T14:59:11.764Z,40.80
2017-10-16T15:01:41.000Z,38.70
2017-10-16T15:04:08.531Z,38.70
2017-10-16T15:06:36.834Z,36.90
2017-10-16T15:09:04.350Z,36.90
2017-10-16T15:11:32.672Z,39.30
2017-10-16T15:14:00.202Z,39.30
2017-10-16T15:16:28.472Z,41.50
2017-10-16T15:18:56.007Z,41.50
2017-10-16T15:21:23.551Z,42.50
2017-10-16T15:23:51.085Z,43.40
2017-10-16T15:26:18.598Z,44.70
2017-10-16T15:28:46.116Z,44.60
2017-10-16T15:31:13.639Z,45.20
2017-10-16T15:33:41.936Z,46.20
2017-10-16T15:36:09.444Z,46.20
2017-10-16T15:38:36.960Z,45.80
2017-10-16T15:41:04.517Z,47.10
2017-10-16T15:43:32.042Z,45.90
2017-10-16T15:46:00.352Z,46.90
2017-10-16T15:48:27.857Z,46.90
2017-10-16T15:50:55.475Z,47.30
2017-10-16T15:53:22.995Z,48.20
2017-10-16T15:55:51.307Z,49.80
2017-10-16T15:58:18.831Z,49.70
2017-10-16T16:00:47.110Z,51.60
2017-10-16T16:03:15.396Z,52.50
2017-10-16T16:05:43.663Z,55.10
2017-10-16T16:08:11.968Z,57.20
2017-10-16T16:10:39.486Z,57.20
2017-10-16T16:13:07.013Z,58.50
2017-10-16T16:15:34.521Z,65.80
2017-10-16T16:18:02.828Z,85.60
2017-10-16T16:20:30.351Z,85.50
2017-10-16T16:22:58.638Z,97.00
2017-10-16T16:25:26.156Z,96.90
2017-10-16T16:27:53.678Z,98.60
2017-10-16T16:30:21.238Z,99.90
2017-10-16T16:32:48.748Z,99.90
2017-10-16T16:35:17.063Z,99.90
2017-10-16T16:37:44.582Z,99.90
2017-10-16T16:40:12.904Z,99.90
2017-10-16T16:42:40.467Z,99.90
2017-10-16T16:45:07.987Z,99.90
2017-10-16T16:47:36.406Z,99.90
2017-10-16T16:50:03.909Z,99.90
2017-10-16T16:52:31.477Z,99.90
2017-10-16T16:54:59.744Z,99.90
2017-10-16T16:57:27.287Z,99.90
2017-10-16T16:59:54.815Z,99.90
2017-10-16T17:02:22.344Z,99.90
2017-10-16T17:04:50.634Z,99.90
2017-10-16T17:07:18.173Z,99.90
2017-10-16T17:09:46.459Z,99.90
2017-10-16T17:12:13.999Z,99.90
2017-10-16T17:14:42.288Z,99.90
2017-10-16T17:17:10.560Z,99.90
2017-10-16T17:19:38.911Z,99.90
2017-10-16T17:22:06.421Z,99.90
2017-10-16T17:24:33.944Z,99.90
2017-10-16T17:27:01.474Z,99.90
2017-10-16T17:29:29.017Z,99.90
2017-10-16T17:31:56.543Z,99.90
2017-10-16T17:34:24.063Z,99.90
2017-10-16T17:36:51.592Z,99.90
2017-10-16T17:39:19.122Z,99.90
2017-10-16T17:41:46.673Z,99.90
2017-10-16T17:44:14.944Z,99.90
2017-10-16T17:46:43.257Z,99.90
2017-10-16T17:49:10.768Z,99.90
2017-10-16T17:51:39.063Z,99.90
2017-10-16T17:54:06.576Z,99.90
2017-10-16T17:56:34.119Z,99.90
2017-10-16T17:59:01.646Z,99.90
2017-10-16T18:01:29.173Z,99.90
2017-10-16T18:03:57.706Z,99.90
2017-10-16T18:06:25.236Z,99.90
2017-10-16T18:08:53.530Z,99.90
2017-10-16T18:11:21.031Z,99.90
2017-10-16T18:13:48.712Z,99.90
2017-10-16T18:16:16.289Z,99.90
2017-10-16T18:18:45.263Z,99.90
2017-10-16T18:21:15.155Z,99.90
2017-10-16T18:23:43.454Z,99.90
2017-10-16T18:26:11.124Z,99.90
2017-10-16T18:28:38.645Z,99.90
2017-10-16T18:31:06.963Z,99.90
2017-10-16T18:33:35.295Z,99.90
2017-10-16T18:36:02.869Z,99.90
2017-10-16T18:38:31.465Z,99.90
2017-10-16T18:40:59.085Z,99.90
2017-10-16T18:43:27.374Z,99.90
2017-10-16T18:45:56.514Z,99.90
2017-10-16T18:48:24.455Z,99.90
2017-10-16T18:50:52.137Z,99.90
2017-10-16T18:53:21.097Z,99.90
2017-10-16T18:55:48.697Z,99.90
2017-10-16T18:58:16.559Z,99.90
2017-10-16T19:00:44.523Z,99.90
2017-10-16T19:03:12.864Z,99.90
2017-10-16T19:05:42.389Z,99.90
2017-10-16T19:08:10.783Z,99.90
2017-10-16T19:10:38.738Z,99.90
2017-10-16T19:13:08.095Z,99.90
2017-10-16T19:15:36.419Z,99.90
2017-10-16T19:18:05.003Z,99.90
2017-10-16T19:20:32.565Z,99.90
2017-10-16T19:23:01.407Z,99.90
2017-10-16T19:25:28.985Z,99.90
2017-10-16T19:27:57.493Z,99.90
2017-10-16T19:30:26.588Z,99.90
2017-10-16T19:32:54.230Z,99.90
2017-10-16T19:35:21.740Z,99.90
2017-10-16T19:37:49.526Z,99.90
2017-10-16T19:40:17.078Z,99.90
2017-10-16T19:42:45.377Z,99.90
2017-10-16T19:45:14.178Z,99.90
2017-10-16T19:47:41.959Z,99.90
2017-10-16T19:50:09.485Z,99.90
2017-10-16T19:52:37.846Z,99.90
2017-10-16T19:55:05.455Z,99.90
2017-10-16T19:57:33.067Z,99.90
2017-10-16T20:00:01.354Z,99.90
2017-10-16T20:02:29.669Z,99.90
2017-10-16T20:04:57.220Z,99.90
2017-10-16T20:07:24.891Z,99.90
2017-10-16T20:09:52.431Z,99.90
2017-10-16T20:12:19.940Z,99.90
2017-10-16T20:14:48.281Z,99.90
2017-10-16T20:17:15.788Z,99.90
2017-10-16T20:19:43.316Z,99.90
2017-10-16T20:22:10.836Z,99.90
2017-10-16T20:24:38.344Z,99.90
2017-10-16T20:27:06.753Z,99.90
2017-10-16T20:29:35.042Z,99.90
2017-10-16T20:32:03.350Z,99.90
2017-10-16T20:34:30.857Z,99.90
2017-10-16T20:36:58.381Z,99.90
2017-10-16T20:39:25.893Z,99.90
2017-10-16T20:41:54.199Z,99.90
2017-10-16T20:44:21.717Z,99.90
2017-10-16T20:46:50.034Z,99.90
2017-10-16T20:49:17.543Z,99.90
2017-10-16T20:51:45.153Z,99.90
2017-10-16T20:54:12.675Z,99.90
2017-10-16T20:56:40.943Z,99.90
2017-10-16T20:59:09.282Z,99.90
2017-10-16T21:01:36.799Z,99.90
2017-10-16T21:04:04.338Z,99.90
2017-10-16T21:06:31.859Z,99.90
2017-10-16T21:08:59.402Z,99.90
2017-10-16T21:11:26.918Z,99.90
2017-10-16T21:13:55.217Z,99.90
2017-10-16T21:16:22.720Z,99.90
2017-10-16T21:18:50.237Z,99.90
2017-10-16T21:21:17.775Z,99.90
2017-10-16T21:23:46.059Z,99.90
2017-10-16T21:26:14.348Z,99.90
2017-10-16T21:28:41.921Z,99.90
2017-10-16T21:31:09.444Z,99.90
2017-10-16T21:33:37.733Z,99.90
2017-10-16T21:36:05.312Z,99.90
2017-10-16T21:38:32.816Z,99.90
2017-10-16T21:41:00.347Z,99.90
2017-10-16T21:43:27.857Z,99.90
2017-10-16T21:45:56.131Z,99.90
2017-10-16T21:48:24.430Z,99.90
2017-10-16T21:50:51.950Z,99.90
2017-10-16T21:53:19.482Z,99.90
2017-10-16T21:55:47.007Z,99.90
2017-10-16T21:58:14.528Z,99.90
2017-10-16T22:00:42.049Z,99.90
2017-10-16T22:03:09.594Z,99.90
2017-10-16T22:05:37.120Z,99.90
2017-10-16T22:08:05.395Z,99.90
2017-10-16T22:10:33.690Z,99.90
2017-10-16T22:13:01.205Z,99.90
2017-10-16T22:15:28.733Z,99.90
2017-10-16T22:17:56.250Z,99.90
2017-10-16T22:20:24.552Z,99.90
2017-10-16T22:22:52.059Z,99.90
2017-10-16T22:25:20.361Z,99.90
2017-10-16T22:27:48.677Z,99.90
2017-10-16T22:30:16.189Z,99.90
2017-10-16T22:32:44.493Z,99.90
2017-10-16T22:35:12.011Z,99.90
2017-10-16T22:37:39.532Z,99.90
2017-10-16T22:40:07.055Z,99.90
2017-10-16T22:42:34.581Z,99.90
2017-10-16T22:45:02.091Z,99.90
2017-10-16T22:47:34.339Z,99.90
2017-10-16T22:50:01.868Z,99.90
2017-10-16T22:52:29.375Z,99.90
2017-10-16T22:54:56.914Z,99.90
2017-10-16T22:57:24.434Z,99.90
2017-10-16T22:59:51.968Z,99.90
2017-10-16T23:02:19.479Z,99.90
2017-10-16T23:04:47.764Z,99.90
2017-10-16T23:07:16.064Z,99.90
2017-10-16T23:09:43.610Z,99.90
2017-10-16T23:12:11.130Z,99.90
2017-10-16T23:14:38.632Z,99.90
2017-10-16T23:17:06.179Z,99.90
2017-10-16T23:19:33.688Z,99.90
2017-10-16T23:22:01.209Z,99.90
2017-10-16T23:24:28.731Z,99.90
2017-10-16T23:26:57.043Z,99.90
2017-10-16T23:29:24.544Z,99.90
2017-10-16T23:31:52.867Z,99.90
2017-10-16T23:34:20.386Z,99.90
2017-10-16T23:36:47.907Z,99.90
2017-10-16T23:39:15.429Z,99.90
2017-10-16T23:41:43.719Z,99.90
2017-10-16T23:44:11.240Z,99.90
2017-10-16T23:46:38.754Z,99.90
2017-10-16T23:49:06.311Z,99.90
2017-10-16T23:51:33.815Z,99.90
2017-10-16T23:54:02.879Z,99.90
2017-10-16T23:56:30.526Z,99.90
2017-10-16T23:58:58.047Z,99.90
